sensor_id;sensor_type;location;lat;lon;timestamp;temperature;humidity
12264;DHT22;6194;49.010;8.414;2023-04-25T00:00:44;8.00;99.90
12264;DHT22;6194;49.010;8.414;2023-04-25T00:03:10;8.00;99.90
12264;DHT22;6194;49.010;8.414;2023-04-25T00:05:36;7.90;99.90
12264;DHT22;6194;49.010;8.414;2023-04-25T00:08:03;7.90;99.90
12264;DHT22;6194;49.010;8.414;2023-04-25T00:10:28;8.00;99.90
12264;DHT22;6194;49.010;8.414;2023-04-25T00:12:54;8.20;99.90
12264;DHT22;6194;49.010;8.414;2023-04-25T00:15:20;7.90;99.90
12264;DHT22;6194;49.010;8.414;2023-04-25T00:17:45;7.80;99.90
12264;DHT22;6194;49.010;8.414;2023-04-25T00:20:11;7.80;99.90
12264;DHT22;6194;49.010;8.414;2023-04-25T00:22:37;7.90;99.90
12264;DHT22;6194;49.010;8.414;2023-04-25T00:25:06;8.00;99.90
12264;DHT22;6194;49.010;8.414;2023-04-25T00:27:32;8.10;99.90
12264;DHT22;6194;49.010;8.414;2023-04-25T00:29:58;8.20;99.90
12264;DHT22;6194;49.010;8.414;2023-04-25T00:32:23;8.30;99.90
12264;DHT22;6194;49.010;8.414;2023-04-25T00:34:49;8.40;99.90
12264;DHT22;6194;49.010;8.414;2023-04-25T00:37:15;8.50;99.90
12264;DHT22;6194;49.010;8.414;2023-04-25T00:39:41;8.50;99.90
12264;DHT22;6194;49.010;8.414;2023-04-25T00:42:07;8.50;99.90
12264;DHT22;6194;49.010;8.414;2023-04-25T00:44:34;8.60;99.90
12264;DHT22;6194;49.010;8.414;2023-04-25T00:47:02;8.70;99.90
12264;DHT22;6194;49.010;8.414;2023-04-25T00:49:28;8.70;99.90
12264;DHT22;6194;49.010;8.414;2023-04-25T00:51:54;8.70;99.90
12264;DHT22;6194;49.010;8.414;2023-04-25T00:54:20;8.70;99.90
12264;DHT22;6194;49.010;8.414;2023-04-25T00:56:46;8.70;99.90
12264;DHT22;6194;49.010;8.414;2023-04-25T00:59:11;8.60;99.90
12264;DHT22;6194;49.010;8.414;2023-04-25T01:01:38;8.60;99.90
12264;DHT22;6194;49.010;8.414;2023-04-25T01:04:04;8.50;99.90
12264;DHT22;6194;49.010;8.414;2023-04-25T01:06:30;8.70;99.90
12264;DHT22;6194;49.010;8.414;2023-04-25T01:08:57;8.60;99.90
12264;DHT22;6194;49.010;8.414;2023-04-25T01:11:23;8.70;99.90
12264;DHT22;6194;49.010;8.414;2023-04-25T01:13:48;8.80;99.90
12264;DHT22;6194;49.010;8.414;2023-04-25T01:16:14;8.70;99.90
12264;DHT22;6194;49.010;8.414;2023-04-25T01:18:40;8.70;99.90
12264;DHT22;6194;49.010;8.414;2023-04-25T01:21:08;8.60;99.90
12264;DHT22;6194;49.010;8.414;2023-04-25T01:23:35;8.60;99.90
12264;DHT22;6194;49.010;8.414;2023-04-25T01:26:02;8.60;99.90
12264;DHT22;6194;49.010;8.414;2023-04-25T01:28:28;8.60;99.90
12264;DHT22;6194;49.010;8.414;2023-04-25T01:30:54;8.60;99.90
12264;DHT22;6194;49.010;8.414;2023-04-25T01:33:21;8.50;99.90
12264;DHT22;6194;49.010;8.414;2023-04-25T01:35:47;8.50;99.90
12264;DHT22;6194;49.010;8.414;2023-04-25T01:38:13;8.60;99.90
12264;DHT22;6194;49.010;8.414;2023-04-25T01:40:40;8.50;99.90
12264;DHT22;6194;49.010;8.414;2023-04-25T01:43:07;8.50;99.90
12264;DHT22;6194;49.010;8.414;2023-04-25T01:45:33;8.50;99.90
12264;DHT22;6194;49.010;8.414;2023-04-25T01:48:01;8.60;99.90
12264;DHT22;6194;49.010;8.414;2023-04-25T01:50:27;8.60;99.90
12264;DHT22;6194;49.010;8.414;2023-04-25T01:52:53;8.60;99.90
12264;DHT22;6194;49.010;8.414;2023-04-25T01:55:19;8.60;99.90
12264;DHT22;6194;49.010;8.414;2023-04-25T01:57:44;8.70;99.90
12264;DHT22;6194;49.010;8.414;2023-04-25T02:00:11;8.70;99.90
12264;DHT22;6194;49.010;8.414;2023-04-25T02:02:36;8.70;99.90
12264;DHT22;6194;49.010;8.414;2023-04-25T02:05:02;8.70;99.90
12264;DHT22;6194;49.010;8.414;2023-04-25T02:07:28;8.70;99.90
12264;DHT22;6194;49.010;8.414;2023-04-25T02:09:53;8.70;99.90
12264;DHT22;6194;49.010;8.414;2023-04-25T02:12:19;8.70;99.90
12264;DHT22;6194;49.010;8.414;2023-04-25T02:14:44;8.70;99.90
12264;DHT22;6194;49.010;8.414;2023-04-25T02:17:10;8.70;99.90
12264;DHT22;6194;49.010;8.414;2023-04-25T02:19:38;8.70;99.90
12264;DHT22;6194;49.010;8.414;2023-04-25T02:22:03;8.70;99.90
12264;DHT22;6194;49.010;8.414;2023-04-25T02:24:29;8.70;99.90
12264;DHT22;6194;49.010;8.414;2023-04-25T02:26:54;8.70;99.90
12264;DHT22;6194;49.010;8.414;2023-04-25T02:29:21;8.60;99.90
12264;DHT22;6194;49.010;8.414;2023-04-25T02:31:47;8.40;99.90
12264;DHT22;6194;49.010;8.414;2023-04-25T02:34:12;8.30;99.90
12264;DHT22;6194;49.010;8.414;2023-04-25T02:36:38;8.10;99.90
12264;DHT22;6194;49.010;8.414;2023-04-25T02:39:04;7.90;99.90
12264;DHT22;6194;49.010;8.414;2023-04-25T02:41:29;7.90;99.90
12264;DHT22;6194;49.010;8.414;2023-04-25T02:43:55;7.80;99.90
12264;DHT22;6194;49.010;8.414;2023-04-25T02:46:21;7.80;99.90
12264;DHT22;6194;49.010;8.414;2023-04-25T02:48:46;7.80;99.90
12264;DHT22;6194;49.010;8.414;2023-04-25T02:51:12;7.80;99.90
12264;DHT22;6194;49.010;8.414;2023-04-25T02:53:37;7.80;99.90
12264;DHT22;6194;49.010;8.414;2023-04-25T02:56:03;7.80;99.90
12264;DHT22;6194;49.010;8.414;2023-04-25T02:58:29;7.80;99.90
12264;DHT22;6194;49.010;8.414;2023-04-25T03:00:55;7.80;99.90
12264;DHT22;6194;49.010;8.414;2023-04-25T03:03:20;8.20;99.90
12264;DHT22;6194;49.010;8.414;2023-04-25T03:05:50;7.90;99.90
12264;DHT22;6194;49.010;8.414;2023-04-25T03:08:17;7.80;99.90
12264;DHT22;6194;49.010;8.414;2023-04-25T03:10:43;7.80;99.90
12264;DHT22;6194;49.010;8.414;2023-04-25T03:13:08;7.80;99.90
12264;DHT22;6194;49.010;8.414;2023-04-25T03:15:35;7.80;99.90
12264;DHT22;6194;49.010;8.414;2023-04-25T03:18:00;7.80;99.90
12264;DHT22;6194;49.010;8.414;2023-04-25T03:20:26;7.80;99.90
12264;DHT22;6194;49.010;8.414;2023-04-25T03:22:52;7.80;99.90
12264;DHT22;6194;49.010;8.414;2023-04-25T03:25:17;7.80;99.90
12264;DHT22;6194;49.010;8.414;2023-04-25T03:27:43;7.70;99.90
12264;DHT22;6194;49.010;8.414;2023-04-25T03:30:09;7.80;99.90
12264;DHT22;6194;49.010;8.414;2023-04-25T03:32:35;7.80;99.90
12264;DHT22;6194;49.010;8.414;2023-04-25T03:35:00;7.90;99.90
12264;DHT22;6194;49.010;8.414;2023-04-25T03:37:26;7.80;99.90
12264;DHT22;6194;49.010;8.414;2023-04-25T03:39:51;7.80;99.90
12264;DHT22;6194;49.010;8.414;2023-04-25T03:42:17;7.80;99.90
12264;DHT22;6194;49.010;8.414;2023-04-25T03:44:43;7.90;99.90
12264;DHT22;6194;49.010;8.414;2023-04-25T03:47:09;7.80;99.90
12264;DHT22;6194;49.010;8.414;2023-04-25T03:49:35;7.80;99.90
12264;DHT22;6194;49.010;8.414;2023-04-25T03:52:01;7.80;99.90
12264;DHT22;6194;49.010;8.414;2023-04-25T03:54:27;7.80;99.90
12264;DHT22;6194;49.010;8.414;2023-04-25T03:56:52;7.90;99.90
12264;DHT22;6194;49.010;8.414;2023-04-25T03:59:18;7.90;99.90
12264;DHT22;6194;49.010;8.414;2023-04-25T04:01:43;7.90;99.90
12264;DHT22;6194;49.010;8.414;2023-04-25T04:04:09;8.30;99.90
12264;DHT22;6194;49.010;8.414;2023-04-25T04:06:35;7.90;99.90
12264;DHT22;6194;49.010;8.414;2023-04-25T04:09:02;8.00;99.90
12264;DHT22;6194;49.010;8.414;2023-04-25T04:11:27;8.00;99.90
12264;DHT22;6194;49.010;8.414;2023-04-25T04:13:53;8.00;99.90
12264;DHT22;6194;49.010;8.414;2023-04-25T04:16:18;8.00;99.90
12264;DHT22;6194;49.010;8.414;2023-04-25T04:18:45;8.10;99.90
12264;DHT22;6194;49.010;8.414;2023-04-25T04:21:11;8.10;99.90
12264;DHT22;6194;49.010;8.414;2023-04-25T04:23:36;8.20;99.90
12264;DHT22;6194;49.010;8.414;2023-04-25T04:26:02;8.10;99.90
12264;DHT22;6194;49.010;8.414;2023-04-25T04:28:28;8.10;99.90
12264;DHT22;6194;49.010;8.414;2023-04-25T04:30:54;8.10;99.90
12264;DHT22;6194;49.010;8.414;2023-04-25T04:33:20;8.10;99.90
12264;DHT22;6194;49.010;8.414;2023-04-25T04:35:46;8.10;99.90
12264;DHT22;6194;49.010;8.414;2023-04-25T04:38:13;8.10;99.90
12264;DHT22;6194;49.010;8.414;2023-04-25T04:40:41;8.10;99.90
12264;DHT22;6194;49.010;8.414;2023-04-25T04:43:08;8.10;99.90
12264;DHT22;6194;49.010;8.414;2023-04-25T04:45:36;8.10;99.90
12264;DHT22;6194;49.010;8.414;2023-04-25T04:48:06;8.10;99.90
12264;DHT22;6194;49.010;8.414;2023-04-25T04:50:32;8.10;99.90
12264;DHT22;6194;49.010;8.414;2023-04-25T04:52:58;8.20;99.90
12264;DHT22;6194;49.010;8.414;2023-04-25T04:55:23;8.30;99.90
12264;DHT22;6194;49.010;8.414;2023-04-25T04:57:49;8.30;99.90
12264;DHT22;6194;49.010;8.414;2023-04-25T05:00:15;8.30;99.90
12264;DHT22;6194;49.010;8.414;2023-04-25T05:02:41;8.30;99.90
12264;DHT22;6194;49.010;8.414;2023-04-25T05:05:07;8.40;99.90
12264;DHT22;6194;49.010;8.414;2023-04-25T05:07:33;8.40;99.90
12264;DHT22;6194;49.010;8.414;2023-04-25T05:09:59;8.50;99.90
12264;DHT22;6194;49.010;8.414;2023-04-25T05:12:24;8.50;99.90
12264;DHT22;6194;49.010;8.414;2023-04-25T05:14:50;8.50;99.90
12264;DHT22;6194;49.010;8.414;2023-04-25T05:17:15;8.50;99.90
12264;DHT22;6194;49.010;8.414;2023-04-25T05:19:41;8.50;99.90
12264;DHT22;6194;49.010;8.414;2023-04-25T05:22:07;8.50;99.90
12264;DHT22;6194;49.010;8.414;2023-04-25T05:24:32;8.50;99.90
12264;DHT22;6194;49.010;8.414;2023-04-25T05:26:58;8.50;99.90
12264;DHT22;6194;49.010;8.414;2023-04-25T05:29:23;8.60;99.90
12264;DHT22;6194;49.010;8.414;2023-04-25T05:31:49;8.70;99.90
12264;DHT22;6194;49.010;8.414;2023-04-25T05:34:14;8.80;99.90
12264;DHT22;6194;49.010;8.414;2023-04-25T05:36:41;8.90;99.90
12264;DHT22;6194;49.010;8.414;2023-04-25T05:39:07;9.00;99.90
12264;DHT22;6194;49.010;8.414;2023-04-25T05:41:34;9.10;99.90
12264;DHT22;6194;49.010;8.414;2023-04-25T05:43:59;9.30;99.90
12264;DHT22;6194;49.010;8.414;2023-04-25T05:46:25;9.60;99.90
12264;DHT22;6194;49.010;8.414;2023-04-25T05:48:50;9.80;99.90
12264;DHT22;6194;49.010;8.414;2023-04-25T05:51:16;10.10;99.90
12264;DHT22;6194;49.010;8.414;2023-04-25T05:53:43;10.00;99.90
12264;DHT22;6194;49.010;8.414;2023-04-25T05:56:09;10.10;99.90
12264;DHT22;6194;49.010;8.414;2023-04-25T05:58:35;10.00;99.90
12264;DHT22;6194;49.010;8.414;2023-04-25T06:01:01;10.00;99.90
12264;DHT22;6194;49.010;8.414;2023-04-25T06:03:26;9.90;99.90
12264;DHT22;6194;49.010;8.414;2023-04-25T06:05:52;9.90;99.90
12264;DHT22;6194;49.010;8.414;2023-04-25T06:08:17;9.70;99.90
12264;DHT22;6194;49.010;8.414;2023-04-25T06:10:43;9.60;99.90
12264;DHT22;6194;49.010;8.414;2023-04-25T06:13:08;9.50;99.90
12264;DHT22;6194;49.010;8.414;2023-04-25T06:15:34;9.30;99.90
12264;DHT22;6194;49.010;8.414;2023-04-25T06:18:00;9.30;99.90
12264;DHT22;6194;49.010;8.414;2023-04-25T06:20:26;9.20;99.90
12264;DHT22;6194;49.010;8.414;2023-04-25T06:22:51;9.10;99.90
12264;DHT22;6194;49.010;8.414;2023-04-25T06:25:17;9.10;99.90
12264;DHT22;6194;49.010;8.414;2023-04-25T06:27:43;9.00;99.90
12264;DHT22;6194;49.010;8.414;2023-04-25T06:30:09;8.90;99.90
12264;DHT22;6194;49.010;8.414;2023-04-25T06:32:37;8.80;99.90
12264;DHT22;6194;49.010;8.414;2023-04-25T06:35:03;8.70;99.90
12264;DHT22;6194;49.010;8.414;2023-04-25T06:37:29;8.60;99.90
12264;DHT22;6194;49.010;8.414;2023-04-25T06:39:54;8.50;99.90
12264;DHT22;6194;49.010;8.414;2023-04-25T06:42:20;8.50;99.90
12264;DHT22;6194;49.010;8.414;2023-04-25T06:44:45;8.60;99.90
12264;DHT22;6194;49.010;8.414;2023-04-25T06:47:11;8.50;99.90
12264;DHT22;6194;49.010;8.414;2023-04-25T06:49:37;8.50;99.90
12264;DHT22;6194;49.010;8.414;2023-04-25T06:52:02;8.50;99.90
12264;DHT22;6194;49.010;8.414;2023-04-25T06:54:28;8.50;99.90
12264;DHT22;6194;49.010;8.414;2023-04-25T06:56:55;8.50;99.90
12264;DHT22;6194;49.010;8.414;2023-04-25T06:59:21;8.70;99.90
12264;DHT22;6194;49.010;8.414;2023-04-25T07:01:47;8.80;99.90
12264;DHT22;6194;49.010;8.414;2023-04-25T07:04:12;8.90;99.90
12264;DHT22;6194;49.010;8.414;2023-04-25T07:06:38;9.00;99.90
12264;DHT22;6194;49.010;8.414;2023-04-25T07:09:08;9.10;99.90
12264;DHT22;6194;49.010;8.414;2023-04-25T07:11:35;9.20;99.90
12264;DHT22;6194;49.010;8.414;2023-04-25T07:14:01;9.30;99.90
12264;DHT22;6194;49.010;8.414;2023-04-25T07:16:27;9.20;99.90
12264;DHT22;6194;49.010;8.414;2023-04-25T07:18:52;9.20;99.90
12264;DHT22;6194;49.010;8.414;2023-04-25T07:21:18;9.10;99.90
12264;DHT22;6194;49.010;8.414;2023-04-25T07:23:44;9.20;99.90
12264;DHT22;6194;49.010;8.414;2023-04-25T07:26:09;9.50;99.90
12264;DHT22;6194;49.010;8.414;2023-04-25T07:28:35;9.20;99.90
12264;DHT22;6194;49.010;8.414;2023-04-25T07:31:00;9.10;99.90
12264;DHT22;6194;49.010;8.414;2023-04-25T07:33:27;9.30;99.90
12264;DHT22;6194;49.010;8.414;2023-04-25T07:35:53;9.40;99.90
12264;DHT22;6194;49.010;8.414;2023-04-25T07:38:18;9.30;99.90
12264;DHT22;6194;49.010;8.414;2023-04-25T07:40:44;9.30;99.90
12264;DHT22;6194;49.010;8.414;2023-04-25T07:43:09;9.30;99.90
12264;DHT22;6194;49.010;8.414;2023-04-25T07:45:37;9.30;99.90
12264;DHT22;6194;49.010;8.414;2023-04-25T07:48:03;9.30;99.90
12264;DHT22;6194;49.010;8.414;2023-04-25T07:50:29;9.30;99.90
12264;DHT22;6194;49.010;8.414;2023-04-25T07:52:54;9.30;99.90
12264;DHT22;6194;49.010;8.414;2023-04-25T07:55:20;9.70;99.90
12264;DHT22;6194;49.010;8.414;2023-04-25T07:57:46;9.30;99.90
12264;DHT22;6194;49.010;8.414;2023-04-25T08:00:12;9.20;99.90
12264;DHT22;6194;49.010;8.414;2023-04-25T08:02:38;9.10;99.90
12264;DHT22;6194;49.010;8.414;2023-04-25T08:05:04;9.10;99.90
12264;DHT22;6194;49.010;8.414;2023-04-25T08:07:29;9.10;99.90
12264;DHT22;6194;49.010;8.414;2023-04-25T08:09:55;9.20;99.90
12264;DHT22;6194;49.010;8.414;2023-04-25T08:12:20;9.00;99.90
12264;DHT22;6194;49.010;8.414;2023-04-25T08:14:46;9.00;99.90
12264;DHT22;6194;49.010;8.414;2023-04-25T08:17:12;9.00;99.90
12264;DHT22;6194;49.010;8.414;2023-04-25T08:19:37;9.10;99.90
12264;DHT22;6194;49.010;8.414;2023-04-25T08:22:03;9.10;99.90
12264;DHT22;6194;49.010;8.414;2023-04-25T08:24:29;9.20;99.90
12264;DHT22;6194;49.010;8.414;2023-04-25T08:26:54;9.20;99.90
12264;DHT22;6194;49.010;8.414;2023-04-25T08:29:20;9.30;99.90
12264;DHT22;6194;49.010;8.414;2023-04-25T08:31:46;9.50;99.90
12264;DHT22;6194;49.010;8.414;2023-04-25T08:34:13;9.60;99.90
12264;DHT22;6194;49.010;8.414;2023-04-25T08:36:38;9.60;99.90
12264;DHT22;6194;49.010;8.414;2023-04-25T08:39:04;9.60;99.90
12264;DHT22;6194;49.010;8.414;2023-04-25T08:41:30;9.60;99.90
12264;DHT22;6194;49.010;8.414;2023-04-25T08:43:56;9.70;99.90
12264;DHT22;6194;49.010;8.414;2023-04-25T08:46:23;9.60;99.90
12264;DHT22;6194;49.010;8.414;2023-04-25T08:48:49;9.80;99.90
12264;DHT22;6194;49.010;8.414;2023-04-25T08:51:21;9.90;99.90
12264;DHT22;6194;49.010;8.414;2023-04-25T08:53:51;9.90;99.90
12264;DHT22;6194;49.010;8.414;2023-04-25T08:56:17;10.00;99.90
12264;DHT22;6194;49.010;8.414;2023-04-25T08:58:44;10.00;99.90
12264;DHT22;6194;49.010;8.414;2023-04-25T09:01:11;9.90;99.90
12264;DHT22;6194;49.010;8.414;2023-04-25T09:03:37;9.70;99.90
12264;DHT22;6194;49.010;8.414;2023-04-25T09:06:03;9.60;99.90
12264;DHT22;6194;49.010;8.414;2023-04-25T09:08:29;9.50;99.90
12264;DHT22;6194;49.010;8.414;2023-04-25T09:10:55;9.40;99.90
12264;DHT22;6194;49.010;8.414;2023-04-25T09:13:26;9.40;99.90
12264;DHT22;6194;49.010;8.414;2023-04-25T09:15:54;9.30;99.90
12264;DHT22;6194;49.010;8.414;2023-04-25T09:18:27;9.40;99.90
12264;DHT22;6194;49.010;8.414;2023-04-25T09:20:55;9.40;99.90
12264;DHT22;6194;49.010;8.414;2023-04-25T09:23:22;9.40;99.90
12264;DHT22;6194;49.010;8.414;2023-04-25T09:25:49;9.30;99.90
12264;DHT22;6194;49.010;8.414;2023-04-25T09:28:15;9.10;99.90
12264;DHT22;6194;49.010;8.414;2023-04-25T09:30:41;9.10;99.90
12264;DHT22;6194;49.010;8.414;2023-04-25T09:33:11;9.00;99.90
12264;DHT22;6194;49.010;8.414;2023-04-25T09:35:41;8.90;99.90
12264;DHT22;6194;49.010;8.414;2023-04-25T09:38:14;8.80;99.90
12264;DHT22;6194;49.010;8.414;2023-04-25T09:40:44;8.80;99.90
12264;DHT22;6194;49.010;8.414;2023-04-25T09:43:30;8.50;99.90
12264;DHT22;6194;49.010;8.414;2023-04-25T09:45:55;8.20;99.90
12264;DHT22;6194;49.010;8.414;2023-04-25T09:48:26;7.70;99.90
12264;DHT22;6194;49.010;8.414;2023-04-25T09:51:13;7.40;99.90
12264;DHT22;6194;49.010;8.414;2023-04-25T09:53:44;7.30;99.90
12264;DHT22;6194;49.010;8.414;2023-04-25T09:56:12;7.40;99.90
12264;DHT22;6194;49.010;8.414;2023-04-25T09:58:39;7.30;99.90
12264;DHT22;6194;49.010;8.414;2023-04-25T10:01:11;7.50;99.90
12264;DHT22;6194;49.010;8.414;2023-04-25T10:03:39;7.50;99.90
12264;DHT22;6194;49.010;8.414;2023-04-25T10:06:12;7.70;99.90
12264;DHT22;6194;49.010;8.414;2023-04-25T10:08:40;7.80;99.90
12264;DHT22;6194;49.010;8.414;2023-04-25T10:11:08;7.90;99.90
12264;DHT22;6194;49.010;8.414;2023-04-25T10:13:35;8.20;99.90
12264;DHT22;6194;49.010;8.414;2023-04-25T10:16:03;8.20;99.90
12264;DHT22;6194;49.010;8.414;2023-04-25T10:18:29;8.30;99.90
12264;DHT22;6194;49.010;8.414;2023-04-25T10:20:59;8.60;99.90
12264;DHT22;6194;49.010;8.414;2023-04-25T10:23:25;8.90;99.90
12264;DHT22;6194;49.010;8.414;2023-04-25T10:25:52;9.30;99.90
12264;DHT22;6194;49.010;8.414;2023-04-25T10:28:18;9.40;99.90
12264;DHT22;6194;49.010;8.414;2023-04-25T10:31:03;9.40;99.90
12264;DHT22;6194;49.010;8.414;2023-04-25T10:33:38;9.40;99.90
12264;DHT22;6194;49.010;8.414;2023-04-25T10:36:20;9.40;99.90
12264;DHT22;6194;49.010;8.414;2023-04-25T10:38:48;9.80;99.90
12264;DHT22;6194;49.010;8.414;2023-04-25T10:41:14;10.00;99.90
12264;DHT22;6194;49.010;8.414;2023-04-25T10:43:42;10.10;99.90
12264;DHT22;6194;49.010;8.414;2023-04-25T10:46:27;10.00;99.90
12264;DHT22;6194;49.010;8.414;2023-04-25T10:48:56;10.00;99.90
12264;DHT22;6194;49.010;8.414;2023-04-25T10:51:27;10.20;99.90
12264;DHT22;6194;49.010;8.414;2023-04-25T10:56:23;10.30;99.90
12264;DHT22;6194;49.010;8.414;2023-04-25T10:58:50;10.30;99.90
12264;DHT22;6194;49.010;8.414;2023-04-25T11:01:20;10.10;99.90
12264;DHT22;6194;49.010;8.414;2023-04-25T11:03:46;10.00;99.90
12264;DHT22;6194;49.010;8.414;2023-04-25T11:06:55;9.80;99.90
12264;DHT22;6194;49.010;8.414;2023-04-25T11:09:16;9.90;99.90
12264;DHT22;6194;49.010;8.414;2023-04-25T11:11:42;9.80;99.90
12264;DHT22;6194;49.010;8.414;2023-04-25T11:14:07;9.70;99.90
12264;DHT22;6194;49.010;8.414;2023-04-25T11:16:33;9.60;99.90
12264;DHT22;6194;49.010;8.414;2023-04-25T11:18:59;9.50;99.90
12264;DHT22;6194;49.010;8.414;2023-04-25T11:21:27;9.10;99.90
12264;DHT22;6194;49.010;8.414;2023-04-25T11:23:54;9.20;99.90
12264;DHT22;6194;49.010;8.414;2023-04-25T11:26:22;9.20;99.90
12264;DHT22;6194;49.010;8.414;2023-04-25T11:28:49;9.20;99.90
12264;DHT22;6194;49.010;8.414;2023-04-25T11:31:14;9.20;99.90
12264;DHT22;6194;49.010;8.414;2023-04-25T11:33:40;9.20;99.90
12264;DHT22;6194;49.010;8.414;2023-04-25T11:36:06;9.00;99.90
12264;DHT22;6194;49.010;8.414;2023-04-25T11:38:32;8.90;99.90
12264;DHT22;6194;49.010;8.414;2023-04-25T11:40:58;8.80;99.90
12264;DHT22;6194;49.010;8.414;2023-04-25T11:43:25;9.00;99.90
12264;DHT22;6194;49.010;8.414;2023-04-25T11:45:51;8.80;99.90
12264;DHT22;6194;49.010;8.414;2023-04-25T11:48:18;8.80;99.90
12264;DHT22;6194;49.010;8.414;2023-04-25T11:50:44;8.80;99.90
12264;DHT22;6194;49.010;8.414;2023-04-25T11:53:10;8.90;99.90
12264;DHT22;6194;49.010;8.414;2023-04-25T11:55:36;8.80;99.90
12264;DHT22;6194;49.010;8.414;2023-04-25T11:58:03;8.70;99.90
12264;DHT22;6194;49.010;8.414;2023-04-25T12:00:30;8.30;99.90
12264;DHT22;6194;49.010;8.414;2023-04-25T12:02:56;8.30;99.90
12264;DHT22;6194;49.010;8.414;2023-04-25T12:05:29;8.40;99.90
12264;DHT22;6194;49.010;8.414;2023-04-25T12:07:56;8.50;99.90
12264;DHT22;6194;49.010;8.414;2023-04-25T12:10:21;8.30;99.90
12264;DHT22;6194;49.010;8.414;2023-04-25T12:12:49;8.40;99.90
12264;DHT22;6194;49.010;8.414;2023-04-25T12:15:23;8.40;99.90
12264;DHT22;6194;49.010;8.414;2023-04-25T12:17:50;8.50;99.90
12264;DHT22;6194;49.010;8.414;2023-04-25T12:20:19;8.80;99.90
12264;DHT22;6194;49.010;8.414;2023-04-25T12:22:47;9.00;99.90
12264;DHT22;6194;49.010;8.414;2023-04-25T12:28:19;9.80;99.90
12264;DHT22;6194;49.010;8.414;2023-04-25T12:31:02;10.40;99.90
12264;DHT22;6194;49.010;8.414;2023-04-25T12:33:33;10.90;99.90
12264;DHT22;6194;49.010;8.414;2023-04-25T12:36:00;11.30;99.90
12264;DHT22;6194;49.010;8.414;2023-04-25T12:38:31;11.40;99.90
12264;DHT22;6194;49.010;8.414;2023-04-25T12:40:57;12.10;99.90
12264;DHT22;6194;49.010;8.414;2023-04-25T12:43:23;12.70;99.90
12264;DHT22;6194;49.010;8.414;2023-04-25T12:45:51;12.90;99.90
12264;DHT22;6194;49.010;8.414;2023-04-25T12:48:17;13.20;99.90
12264;DHT22;6194;49.010;8.414;2023-04-25T12:50:43;13.30;99.90
12264;DHT22;6194;49.010;8.414;2023-04-25T12:53:09;13.40;99.90
12264;DHT22;6194;49.010;8.414;2023-04-25T12:55:35;13.10;99.90
12264;DHT22;6194;49.010;8.414;2023-04-25T12:58:01;13.20;99.90
12264;DHT22;6194;49.010;8.414;2023-04-25T13:00:27;13.20;99.90
12264;DHT22;6194;49.010;8.414;2023-04-25T13:02:52;13.30;99.90
12264;DHT22;6194;49.010;8.414;2023-04-25T13:05:18;13.40;99.90
12264;DHT22;6194;49.010;8.414;2023-04-25T13:07:43;13.10;99.90
12264;DHT22;6194;49.010;8.414;2023-04-25T13:10:09;13.20;99.90
12264;DHT22;6194;49.010;8.414;2023-04-25T13:12:38;13.50;99.90
12264;DHT22;6194;49.010;8.414;2023-04-25T13:15:04;13.90;99.90
12264;DHT22;6194;49.010;8.414;2023-04-25T13:17:30;13.90;99.90
12264;DHT22;6194;49.010;8.414;2023-04-25T13:19:55;14.10;99.90
12264;DHT22;6194;49.010;8.414;2023-04-25T13:22:21;14.30;99.90
12264;DHT22;6194;49.010;8.414;2023-04-25T13:24:46;14.40;99.90
12264;DHT22;6194;49.010;8.414;2023-04-25T13:27:12;14.70;99.90
12264;DHT22;6194;49.010;8.414;2023-04-25T13:29:38;14.90;99.90
12264;DHT22;6194;49.010;8.414;2023-04-25T13:32:06;14.70;99.90
12264;DHT22;6194;49.010;8.414;2023-04-25T13:34:32;14.60;99.90
12264;DHT22;6194;49.010;8.414;2023-04-25T13:36:57;14.80;99.90
12264;DHT22;6194;49.010;8.414;2023-04-25T13:39:23;15.10;99.90
12264;DHT22;6194;49.010;8.414;2023-04-25T13:41:49;15.30;99.90
12264;DHT22;6194;49.010;8.414;2023-04-25T13:44:14;14.90;99.90
12264;DHT22;6194;49.010;8.414;2023-04-25T13:46:40;15.30;99.90
12264;DHT22;6194;49.010;8.414;2023-04-25T13:49:06;15.60;99.90
12264;DHT22;6194;49.010;8.414;2023-04-25T13:51:31;16.10;99.90
12264;DHT22;6194;49.010;8.414;2023-04-25T13:53:57;16.30;99.90
12264;DHT22;6194;49.010;8.414;2023-04-25T13:56:23;15.70;99.90
12264;DHT22;6194;49.010;8.414;2023-04-25T13:58:50;15.90;99.90
12264;DHT22;6194;49.010;8.414;2023-04-25T14:01:17;16.00;99.90
12264;DHT22;6194;49.010;8.414;2023-04-25T14:03:43;15.50;99.90
12264;DHT22;6194;49.010;8.414;2023-04-25T14:06:08;15.60;99.90
12264;DHT22;6194;49.010;8.414;2023-04-25T14:08:34;15.70;99.90
12264;DHT22;6194;49.010;8.414;2023-04-25T14:11:00;15.90;99.90
12264;DHT22;6194;49.010;8.414;2023-04-25T14:13:26;15.90;99.90
12264;DHT22;6194;49.010;8.414;2023-04-25T14:15:51;15.50;99.90
12264;DHT22;6194;49.010;8.414;2023-04-25T14:18:20;15.50;99.90
12264;DHT22;6194;49.010;8.414;2023-04-25T14:20:46;15.40;99.90
12264;DHT22;6194;49.010;8.414;2023-04-25T14:23:12;15.20;99.90
12264;DHT22;6194;49.010;8.414;2023-04-25T14:25:37;15.30;99.90
12264;DHT22;6194;49.010;8.414;2023-04-25T14:28:03;14.90;99.90
12264;DHT22;6194;49.010;8.414;2023-04-25T14:30:29;15.10;99.90
12264;DHT22;6194;49.010;8.414;2023-04-25T14:32:54;14.80;99.90
12264;DHT22;6194;49.010;8.414;2023-04-25T14:35:20;14.90;99.90
12264;DHT22;6194;49.010;8.414;2023-04-25T14:37:46;14.60;99.90
12264;DHT22;6194;49.010;8.414;2023-04-25T14:40:13;14.80;99.90
12264;DHT22;6194;49.010;8.414;2023-04-25T14:42:40;14.50;99.90
12264;DHT22;6194;49.010;8.414;2023-04-25T14:45:07;14.90;99.90
12264;DHT22;6194;49.010;8.414;2023-04-25T14:47:36;14.60;99.90
12264;DHT22;6194;49.010;8.414;2023-04-25T14:50:02;14.70;99.90
12264;DHT22;6194;49.010;8.414;2023-04-25T14:52:28;14.60;99.90
12264;DHT22;6194;49.010;8.414;2023-04-25T14:54:54;14.60;99.90
12264;DHT22;6194;49.010;8.414;2023-04-25T14:57:19;14.80;99.90
12264;DHT22;6194;49.010;8.414;2023-04-25T14:59:45;15.00;99.90
12264;DHT22;6194;49.010;8.414;2023-04-25T15:02:11;15.00;99.90
12264;DHT22;6194;49.010;8.414;2023-04-25T15:04:37;15.40;99.90
12264;DHT22;6194;49.010;8.414;2023-04-25T15:07:02;15.30;99.90
12264;DHT22;6194;49.010;8.414;2023-04-25T15:09:29;14.80;99.90
12264;DHT22;6194;49.010;8.414;2023-04-25T15:11:55;14.60;99.90
12264;DHT22;6194;49.010;8.414;2023-04-25T15:14:20;14.50;99.90
12264;DHT22;6194;49.010;8.414;2023-04-25T15:16:46;14.30;99.90
12264;DHT22;6194;49.010;8.414;2023-04-25T15:19:11;13.90;99.90
12264;DHT22;6194;49.010;8.414;2023-04-25T15:21:37;13.70;99.90
12264;DHT22;6194;49.010;8.414;2023-04-25T15:24:03;13.10;99.90
12264;DHT22;6194;49.010;8.414;2023-04-25T15:26:28;12.80;99.90
12264;DHT22;6194;49.010;8.414;2023-04-25T15:28:54;12.60;99.90
12264;DHT22;6194;49.010;8.414;2023-04-25T15:31:20;12.20;99.90
12264;DHT22;6194;49.010;8.414;2023-04-25T15:33:46;11.80;99.90
12264;DHT22;6194;49.010;8.414;2023-04-25T15:36:12;11.60;99.90
12264;DHT22;6194;49.010;8.414;2023-04-25T15:38:37;11.30;99.90
12264;DHT22;6194;49.010;8.414;2023-04-25T15:41:04;11.20;99.90
12264;DHT22;6194;49.010;8.414;2023-04-25T15:43:30;11.10;99.90
12264;DHT22;6194;49.010;8.414;2023-04-25T15:45:56;10.80;99.90
12264;DHT22;6194;49.010;8.414;2023-04-25T15:48:21;10.50;99.90
12264;DHT22;6194;49.010;8.414;2023-04-25T15:50:47;10.30;99.90
12264;DHT22;6194;49.010;8.414;2023-04-25T15:53:13;10.10;99.90
12264;DHT22;6194;49.010;8.414;2023-04-25T15:55:38;9.90;99.90
12264;DHT22;6194;49.010;8.414;2023-04-25T15:58:04;9.50;99.90